• Join FlightAware (Why Join?)
  • Login
  • US Flag 
10:52AM EDT


 

Airport Tracker/Info


-or-


 

Live Flight TrackerFlight Track Log ✈ EJA122 ✈ 10-Jul-2013 ✈ KTYS - KIXD

Flight Track Log - Related Links

Times and Time Zones

All times are in EDT time to prevent confusion due to time zone crossing. See the EJA122 flight status page for this flight to view local times or setup timezone preferences in your user account.

Time Position Orientation Groundspeed Altitude Reporting Facility
EDT Latitude Longitude Course Direction KTS MPH feet Rate Location/Type
01:07PM 35.8331 -84.1617 277° West 273 314 7,400  Level Atlanta Center
01:08PM 35.8956 -84.2311 318° Northwest 286 329 9,300 2,700 Climbing Atlanta Center
01:09PM 35.9350 -84.3003 305° West 283 326 12,900 3,000 Climbing Atlanta Center
01:10PM 35.9453 -84.3875 278° West 250 288 15,400 2,640 Climbing Atlanta Center
01:11PM 35.9492 -84.4775 273° West 258 297 18,200 2,220 Climbing Atlanta Center
01:12PM 35.9670 -84.5854 277° West  Level FlightAware Approximate
01:12PM 35.9383 -84.5672 262° West 258 297 19,900  Level Atlanta Center
01:13PM 35.9378 -84.6594 270° West 268 308 21,500 1,320 Climbing Atlanta Center
01:14PM 35.9456 -84.7569 276° West 273 314 22,600 1,020 Climbing Atlanta Center
01:15PM 35.9553 -84.8647 276° West 296 341 23,600 900 Climbing Atlanta Center
01:17PM 35.9606 -85.0769 272° West 352 405 25,200 840 Climbing Memphis Center
01:18PM 35.9658 -85.2022 273° West 367 422 26,000 780 Climbing Memphis Center
01:19PM 35.9733 -85.3350 274° West 378 435 26,800 780 Climbing Memphis Center
01:20PM 35.9789 -85.4681 273° West 389 448 27,600 780 Climbing Memphis Center
01:22PM 35.9914 -85.7419 273° West 401 461 29,300 780 Climbing Memphis Center
01:23PM 35.9989 -85.8928 274° West 401 461 30,100 780 Climbing Memphis Center
01:24PM 36.0039 -86.0311 273° West 401 461 30,900 780 Climbing Memphis Center
01:25PM 36.0108 -86.1719 274° West 406 467 31,700 540 Climbing Memphis Center
01:26PM 36.0156 -86.3128 272° West 406 467 32,000 120 Climbing Memphis Center
01:27PM 36.0200 -86.4589 272° West 418 481 32,000  Level Memphis Center
01:28PM 36.0247 -86.6100 272° West 432 497 32,000  Level Memphis Center
01:29PM 36.0308 -86.7458 273° West 443 510 32,000  Level Memphis Center
01:30PM 36.0353 -86.9022 272° West 450 518 32,000  Level Memphis Center
01:31PM 36.0417 -87.0583 273° West 459 528 32,000  Level Memphis Center
01:32PM 36.0478 -87.2147 273° West 459 528 32,000  Level Memphis Center
01:33PM 36.0542 -87.3867 273° West 459 528 32,000  Level Memphis Center
01:34PM 36.0597 -87.5403 273° West 459 528 32,000 180 Level Memphis Center
01:35PM 36.0633 -87.6944 272° West 459 528 32,400 600 Climbing Memphis Center
01:36PM 36.0683 -87.8431 272° West 446 513 33,200 780 Climbing Memphis Center
01:37PM 36.0733 -87.9892 272° West 439 505 34,000 360 Climbing Memphis Center
01:38PM 36.0778 -88.1203 272° West 433 498 34,000  Level Memphis Center
01:39PM 36.0786 -88.2767 270° West 428 493 34,000  Level Memphis Center
01:40PM 36.0811 -88.4283 271° West 428 493 34,000  Level Memphis Center
01:41PM 36.0853 -88.5797 272° West 435 501 34,000  Level Memphis Center
01:42PM 36.0875 -88.7364 271° West 446 513 34,000  Level Memphis Center
01:43PM 36.0894 -88.8878 271° West 446 513 34,000  Level Memphis Center
01:44PM 36.0911 -89.0444 271° West 446 513 34,000  Level Memphis Center
01:45PM 36.0906 -89.1986 270° West 451 519 34,000  Level Memphis Center
01:46PM 36.0919 -89.3578 271° West 456 525 34,000  Level Memphis Center
01:47PM 36.0972 -89.5144 272° West 456 525 34,000  Level Memphis Center
01:48PM 36.0983 -89.6736 271° West 456 525 34,000  Level Memphis Center
01:49PM 36.0989 -89.8125 270° West 456 525 34,000  Level Memphis Center
01:50PM 36.1017 -89.9692 271° West 456 525 34,000  Level Memphis Center
01:51PM 36.1019 -90.1206 270° West 456 525 34,000  Level Memphis Center
01:52PM 36.1044 -90.2722 271° West 456 525 34,000  Level Memphis Center
01:53PM 36.1064 -90.4264 271° West 451 519 34,000  Level Memphis Center
01:54PM 36.1083 -90.5831 271° West 451 519 34,000  Level Memphis Center
01:55PM 36.1058 -90.7347 269° West 456 525 34,000  Level Memphis Center
01:56PM 36.1075 -90.8889 271° West 456 525 34,000  Level Memphis Center
01:57PM 36.1464 -91.0331 289° West 441 507 34,000  Level Memphis Center
01:58PM 36.2186 -91.1597 305° West 441 507 34,000  Level Memphis Center
01:59PM 36.2844 -91.2917 302° West 441 507 34,000  Level Memphis Center
02:00PM 36.3542 -91.4186 304° West 453 521 34,000  Level Memphis Center
02:01PM 36.4219 -91.5458 304° West 453 521 34,000  Level Memphis Center
02:02PM 36.4814 -91.6475 306° West 453 521 34,000  Level Memphis Center
02:03PM 36.5611 -91.7986 303° West 447 514 34,000  Level Memphis Center
02:04PM 36.6283 -91.9264 303° West 447 514 34,000  Level Memphis Center
02:05PM 36.6856 -92.0300 305° West 443 510 34,000  Level Kansas City Center
02:06PM 36.7525 -92.1586 303° West 442 509 34,000  Level Kansas City Center
02:07PM 36.8194 -92.2853 303° West 440 506 34,000  Level Kansas City Center
02:08PM 36.8972 -92.4381 303° West 436 502 34,000  Level Kansas City Center
02:09PM 36.9633 -92.5647 303° West 434 499 34,000  Level Kansas City Center
02:10PM 37.0292 -92.6919 303° West 434 499 34,000  Level Kansas City Center
02:11PM 37.0964 -92.8228 303° West 439 505 34,000 -420 Level Kansas City Center
02:12PM 37.1778 -92.9411 311° West 449 517 33,200 -1,020 Descending Kansas City Center
02:13PM 37.2819 -93.0219 328° Northwest 441 507 32,000 -600 Descending Kansas City Center
02:14PM 37.3847 -93.0975 330° Northwest 430 495 32,000  Level Kansas City Center
02:15PM 37.5117 -93.1906 330° Northwest 433 498 32,000  Level Kansas City Center
02:16PM 37.6231 -93.2739 329° Northwest 450 518 32,000  Level Kansas City Center
02:17PM 37.7322 -93.3564 329° Northwest 454 522 32,000 -540 Level Kansas City Center
02:18PM 37.8236 -93.4561 319° Northwest 437 503 30,900 -1,320 Descending Kansas City Center
02:19PM 37.9039 -93.5694 312° West 432 497 29,300 -1,620 Descending Kansas City Center
02:20PM 37.9853 -93.6819 313° West 431 496 27,600 -1,800 Descending Kansas City Center
02:21PM 38.0661 -93.7936 313° West 429 494 25,600 -2,400 Descending Kansas City Center
02:22PM 38.1444 -93.9047 312° West 423 487 22,700 -3,120 Descending Kansas City Center
02:23PM 38.2369 -94.0319 313° West 409 471 19,200 -3,000 Descending Kansas City Center
02:24PM 38.3061 -94.1319 311° West 396 456 16,500 -2,520 Descending Kansas City Center
02:25PM 38.3714 -94.2253 312° West 379 436 14,000 -2,520 Descending Kansas City Center
02:26PM 38.4414 -94.3239 312° West 337 388 11,300 -2,340 Descending Kansas City Center
02:27PM 38.4953 -94.4022 311° West 310 357 9,200 -2,040 Descending Kansas City Center
02:28PM 38.5503 -94.4817 312° West 269 310 7,100 -1,560 Descending Kansas City Center
02:29PM 38.5978 -94.5500 312° West 269 310 6,000 -540 Descending Kansas City Center
02:30PM 38.6508 -94.6289 311° West 261 300 6,000 -540 Level Kansas City Center
02:31PM 38.6958 -94.6917 313° West 252 290 4,900 -1,380 Descending Kansas City Center
02:33PM 38.7425 -94.7606 311° West 231 266 3,200 -1,020 Descending Kansas City Center
02:34PM 38.7667 -94.8208 297° West 201 231 2,800 -660 Descending Kansas City Center
02:35PM 38.7819 -94.8825 288° West 167 192 1,900 -780 Descending Kansas City Center
02:36PM 38.8139 -94.8922 347° North 133 153 1,200 -720 Descending Kansas City Center